createdAt,value
2023-02-14T00:00:54.893Z,7.40
2023-02-14T00:04:00.596Z,7.40
2023-02-14T00:07:03.558Z,7.40
2023-02-14T00:10:09.475Z,7.50
2023-02-14T00:13:12.403Z,7.40
2023-02-14T00:16:14.545Z,7.40
2023-02-14T00:19:19.303Z,7.30
2023-02-14T00:22:22.250Z,7.20
2023-02-14T00:25:26.671Z,7.20
2023-02-14T00:28:29.633Z,7.30
2023-02-14T00:31:33.017Z,7.30
2023-02-14T00:34:36.480Z,7.20
2023-02-14T00:37:39.497Z,7.10
2023-02-14T00:40:43.803Z,7.10
2023-02-14T00:43:47.564Z,7.20
2023-02-14T00:46:50.553Z,7.20
2023-02-14T00:49:53.571Z,7.20
2023-02-14T00:52:56.593Z,7.30
2023-02-14T00:56:00.939Z,7.20
2023-02-14T00:59:04.004Z,7.30
2023-02-14T01:02:06.965Z,7.30
2023-02-14T01:05:09.943Z,7.30
2023-02-14T01:08:12.900Z,7.40
2023-02-14T01:11:20.357Z,7.40
2023-02-14T01:14:23.309Z,7.40
2023-02-14T01:17:26.364Z,7.40
2023-02-14T01:20:29.453Z,7.40
2023-02-14T01:23:32.389Z,7.40
2023-02-14T01:26:37.074Z,7.30
2023-02-14T01:29:40.031Z,7.30
2023-02-14T01:32:43.248Z,7.30
2023-02-14T01:35:46.215Z,7.40
2023-02-14T01:38:51.558Z,7.40
2023-02-14T01:41:56.581Z,7.40
2023-02-14T01:45:03.426Z,7.40
2023-02-14T01:48:06.429Z,7.30
2023-02-14T01:51:09.510Z,7.20
2023-02-14T01:54:13.552Z,7.10
2023-02-14T01:57:20.198Z,7.00
2023-02-14T02:00:40.872Z,6.90
2023-02-14T02:03:48.158Z,7.00
2023-02-14T02:06:55.001Z,7.00
2023-02-14T02:10:01.555Z,7.10
2023-02-14T02:13:08.880Z,7.10
2023-02-14T02:16:36.403Z,7.10
2023-02-14T02:20:24.080Z,7.00
2023-02-14T02:23:59.943Z,7.00
2023-02-14T02:27:46.320Z,7.00
2023-02-14T02:31:27.811Z,6.90
2023-02-14T02:34:57.529Z,6.90
2023-02-14T02:38:12.901Z,6.90
2023-02-14T02:41:22.879Z,7.00
2023-02-14T02:44:35.090Z,7.00
2023-02-14T02:47:43.852Z,6.90
2023-02-14T02:51:08.193Z,6.90
2023-02-14T02:54:17.582Z,6.90
2023-02-14T02:57:26.720Z,6.90
2023-02-14T03:00:31.169Z,6.90
2023-02-14T03:03:53.788Z,6.90
2023-02-14T03:06:57.363Z,6.80
2023-02-14T03:10:03.831Z,6.90
2023-02-14T03:13:39.810Z,6.90
2023-02-14T03:17:00.896Z,6.90
2023-02-14T03:20:16.614Z,7.00
2023-02-14T03:23:24.452Z,7.00
2023-02-14T03:26:36.398Z,7.00
2023-02-14T03:29:50.671Z,7.00
2023-02-14T03:33:00.634Z,6.90
2023-02-14T03:36:09.804Z,6.90
2023-02-14T03:39:20.874Z,7.00
2023-02-14T03:42:28.472Z,7.00
2023-02-14T03:45:35.602Z,6.80
2023-02-14T03:48:41.174Z,6.70
2023-02-14T03:51:49.175Z,6.80
2023-02-14T03:54:55.716Z,6.70
2023-02-14T03:58:07.958Z,6.70
2023-02-14T04:01:15.768Z,6.70
2023-02-14T04:04:22.589Z,6.70
2023-02-14T04:07:25.946Z,6.70
2023-02-14T04:10:29.021Z,6.70
2023-02-14T04:13:33.646Z,6.70
2023-02-14T04:16:56.727Z,6.70
2023-02-14T04:19:58.815Z,6.60
2023-02-14T04:23:03.448Z,6.50
2023-02-14T04:26:06.758Z,6.60
2023-02-14T04:29:11.240Z,6.50
2023-02-14T04:32:16.298Z,6.60
2023-02-14T04:35:19.409Z,6.60
2023-02-14T04:38:22.418Z,6.50
2023-02-14T04:41:25.337Z,6.40
2023-02-14T04:44:29.667Z,6.50
2023-02-14T04:47:32.748Z,6.60
2023-02-14T04:50:35.706Z,6.50
2023-02-14T04:53:40.298Z,6.50
2023-02-14T04:56:43.562Z,6.60
2023-02-14T04:59:47.873Z,6.60
2023-02-14T05:02:51.030Z,6.70
2023-02-14T05:05:53.996Z,6.70
2023-02-14T05:08:57.114Z,6.80
2023-02-14T05:12:00.041Z,6.70
2023-02-14T05:15:04.674Z,6.70
2023-02-14T05:18:07.654Z,6.70
2023-02-14T05:21:10.807Z,6.70
2023-02-14T05:24:13.825Z,6.60
2023-02-14T05:27:16.950Z,6.60
2023-02-14T05:30:26.454Z,6.60
2023-02-14T05:33:29.908Z,6.60
2023-02-14T05:36:32.894Z,6.60
2023-02-14T05:39:35.818Z,6.60
2023-02-14T05:42:38.735Z,6.70
2023-02-14T05:45:43.060Z,6.80
2023-02-14T05:48:46.363Z,6.80
2023-02-14T05:51:49.290Z,6.70
2023-02-14T05:54:52.321Z,6.80
2023-02-14T05:57:55.348Z,6.80
2023-02-14T06:01:00.689Z,6.80
2023-02-14T06:04:03.957Z,6.90
2023-02-14T06:07:06.922Z,7.00
2023-02-14T06:10:10.957Z,6.90
2023-02-14T06:13:13.912Z,6.80
2023-02-14T06:16:18.307Z,6.90
2023-02-14T06:19:21.440Z,6.80
2023-02-14T06:22:24.354Z,6.80
2023-02-14T06:25:27.484Z,6.60
2023-02-14T06:28:30.408Z,6.60
2023-02-14T06:31:35.884Z,6.60
2023-02-14T06:34:39.855Z,6.70
2023-02-14T06:37:44.230Z,6.80
2023-02-14T06:40:47.253Z,6.90
2023-02-14T06:43:50.281Z,6.80
2023-02-14T06:46:54.562Z,6.80
2023-02-14T06:49:59.853Z,6.80
2023-02-14T06:53:02.807Z,6.80
2023-02-14T06:56:06.667Z,6.90
2023-02-14T06:59:09.625Z,6.90
2023-02-14T07:02:13.962Z,6.90
2023-02-14T07:05:18.875Z,6.90
2023-02-14T07:08:22.244Z,6.90
2023-02-14T07:11:25.774Z,6.90
2023-02-14T07:14:28.755Z,7.00
2023-02-14T07:17:33.034Z,6.90
2023-02-14T07:20:36.071Z,7.00
2023-02-14T07:23:38.989Z,6.90
2023-02-14T07:26:41.976Z,6.90
2023-02-14T07:29:45.196Z,6.80
2023-02-14T07:32:49.455Z,6.80
2023-02-14T07:35:52.393Z,7.00
2023-02-14T07:38:56.869Z,7.10
2023-02-14T07:41:59.860Z,7.10
2023-02-14T07:45:19.379Z,7.20
2023-02-14T07:48:25.266Z,7.20
2023-02-14T07:51:28.307Z,7.20
2023-02-14T07:54:31.428Z,7.20
2023-02-14T07:57:34.583Z,7.20
2023-02-14T08:00:37.532Z,7.20
2023-02-14T08:03:44.366Z,7.20
2023-02-14T08:06:47.324Z,7.30
2023-02-14T08:09:50.364Z,7.40
2023-02-14T08:13:03.472Z,7.50
2023-02-14T08:16:07.556Z,7.60
2023-02-14T08:19:12.136Z,7.60
2023-02-14T08:22:15.083Z,7.70
2023-02-14T08:25:19.418Z,7.90
2023-02-14T08:28:22.688Z,8.00
2023-02-14T08:31:35.035Z,8.00
2023-02-14T08:34:40.741Z,8.10
2023-02-14T08:37:43.729Z,8.30
2023-02-14T08:40:46.878Z,8.50
2023-02-14T08:43:50.623Z,8.60
2023-02-14T08:46:54.880Z,8.80
2023-02-14T08:49:59.209Z,9.10
2023-02-14T08:53:02.303Z,9.60
2023-02-14T08:56:06.105Z,9.70
2023-02-14T08:59:09.208Z,9.80
2023-02-14T09:02:13.874Z,9.70
2023-02-14T09:05:18.386Z,9.70
2023-02-14T09:08:21.816Z,9.50
2023-02-14T09:11:26.086Z,9.70
2023-02-14T09:14:31.830Z,10.20
2023-02-14T09:17:35.189Z,10.90
2023-02-14T09:20:39.737Z,11.20
2023-02-14T09:23:43.064Z,11.40
2023-02-14T09:26:46.406Z,11.80
2023-02-14T09:29:49.340Z,12.20
2023-02-14T09:32:53.425Z,12.20
2023-02-14T09:36:13.948Z,13.00
2023-02-14T09:39:17.079Z,13.10
2023-02-14T09:42:32.429Z,13.20
2023-02-14T09:45:36.010Z,13.40
2023-02-14T09:48:42.344Z,13.50
2023-02-14T09:51:51.230Z,13.90
2023-02-14T09:54:57.510Z,14.00
2023-02-14T09:58:08.744Z,14.60
2023-02-14T10:01:17.861Z,14.50
2023-02-14T10:04:29.631Z,14.10
2023-02-14T10:07:44.761Z,14.10
2023-02-14T10:10:54.102Z,14.20
2023-02-14T10:14:02.696Z,13.60
2023-02-14T10:17:10.896Z,13.10
2023-02-14T10:20:23.149Z,13.40
2023-02-14T10:23:32.849Z,13.40
2023-02-14T10:26:38.740Z,13.40
2023-02-14T10:29:42.784Z,13.20
2023-02-14T10:32:48.681Z,13.70
2023-02-14T10:35:58.721Z,13.60
2023-02-14T10:39:17.828Z,12.90
2023-02-14T10:42:30.590Z,13.00
2023-02-14T10:45:41.736Z,12.60
2023-02-14T10:48:57.621Z,13.00
2023-02-14T10:52:08.048Z,13.40
2023-02-14T10:55:31.540Z,13.40
2023-02-14T10:58:40.731Z,13.00
2023-02-14T11:01:44.754Z,13.10
2023-02-14T11:04:48.563Z,12.90
2023-02-14T11:07:51.894Z,12.60
2023-02-14T11:11:01.857Z,12.70
2023-02-14T11:14:24.147Z,13.00
2023-02-14T11:17:30.182Z,13.40
2023-02-14T11:20:33.188Z,13.70
2023-02-14T11:23:38.703Z,14.30
2023-02-14T11:26:48.280Z,14.50
2023-02-14T11:29:53.014Z,14.90
2023-02-14T11:32:56.418Z,15.80
2023-02-14T11:36:00.650Z,16.50
2023-02-14T11:39:08.730Z,17.00
2023-02-14T11:42:13.847Z,18.30
2023-02-14T11:45:33.860Z,18.80
2023-02-14T11:48:38.999Z,18.70
2023-02-14T11:51:46.247Z,19.80
2023-02-14T11:54:50.205Z,20.10
2023-02-14T11:57:56.090Z,20.20
2023-02-14T12:01:00.053Z,20.80
2023-02-14T12:04:07.427Z,20.30
2023-02-14T12:07:20.024Z,21.00
2023-02-14T12:10:26.267Z,20.70
2023-02-14T12:13:33.396Z,20.00
2023-02-14T12:16:43.968Z,20.40
2023-02-14T12:19:52.703Z,20.50
2023-02-14T12:23:02.320Z,20.00
2023-02-14T12:26:13.877Z,20.30
2023-02-14T12:29:26.187Z,20.80
2023-02-14T12:32:31.047Z,21.30
2023-02-14T12:35:44.371Z,20.70
2023-02-14T12:38:56.768Z,21.00
2023-02-14T12:42:12.662Z,21.10
2023-02-14T12:45:26.170Z,20.40
2023-02-14T12:48:42.135Z,20.70
2023-02-14T12:51:51.073Z,20.20
2023-02-14T12:55:12.441Z,19.40
2023-02-14T12:58:28.859Z,19.90
2023-02-14T13:02:00.424Z,19.70
2023-02-14T13:05:13.985Z,19.70
2023-02-14T13:08:28.337Z,19.80
2023-02-14T13:11:40.628Z,19.60
2023-02-14T13:14:58.042Z,19.80
2023-02-14T13:18:12.011Z,19.00
2023-02-14T13:21:18.638Z,19.90
2023-02-14T13:24:25.506Z,20.70
2023-02-14T13:27:32.981Z,20.20
2023-02-14T13:30:38.599Z,20.30
2023-02-14T13:33:49.648Z,20.30
2023-02-14T13:36:53.311Z,20.70
2023-02-14T13:39:59.177Z,20.30
2023-02-14T13:43:02.818Z,19.50
2023-02-14T13:46:06.775Z,19.60
2023-02-14T13:49:26.078Z,19.10
2023-02-14T13:52:42.913Z,19.20
2023-02-14T13:55:48.776Z,19.20
2023-02-14T13:58:54.302Z,19.70
2023-02-14T14:02:17.492Z,18.70
2023-02-14T14:05:53.985Z,17.90
2023-02-14T14:08:58.394Z,18.30
2023-02-14T14:12:01.591Z,18.80
2023-02-14T14:15:16.794Z,19.00
2023-02-14T14:18:39.975Z,18.50
2023-02-14T14:21:44.583Z,18.00
2023-02-14T14:25:00.555Z,17.60
2023-02-14T14:28:11.201Z,17.00
2023-02-14T14:31:15.064Z,16.40
2023-02-14T14:34:20.340Z,15.60
2023-02-14T14:37:26.057Z,14.90
2023-02-14T14:40:32.506Z,14.50
2023-02-14T14:43:37.277Z,14.20
2023-02-14T14:46:40.260Z,14.10
2023-02-14T14:49:43.236Z,13.90
2023-02-14T14:52:49.125Z,13.40
2023-02-14T14:55:54.817Z,13.20
2023-02-14T14:58:58.769Z,13.30
2023-02-14T15:02:02.086Z,13.40
2023-02-14T15:05:26.143Z,13.30
2023-02-14T15:08:33.828Z,13.10
2023-02-14T15:11:56.432Z,13.10
2023-02-14T15:14:59.522Z,12.90
2023-02-14T15:18:06.467Z,12.70
2023-02-14T15:21:09.625Z,12.70
2023-02-14T15:24:17.213Z,12.60
2023-02-14T15:27:23.371Z,12.60
2023-02-14T15:30:33.801Z,12.60
2023-02-14T15:33:37.624Z,12.40
2023-02-14T15:36:52.148Z,12.30
2023-02-14T15:39:57.092Z,12.30
2023-02-14T15:43:14.615Z,12.30
2023-02-14T15:46:27.272Z,12.20
2023-02-14T15:49:35.505Z,12.20
2023-02-14T15:52:41.247Z,12.00
2023-02-14T15:55:44.636Z,12.00
2023-02-14T15:58:49.702Z,11.80
2023-02-14T16:01:55.709Z,11.70
2023-02-14T16:05:05.466Z,11.60
2023-02-14T16:08:26.504Z,11.50
2023-02-14T16:11:32.305Z,11.50
2023-02-14T16:14:40.940Z,11.50
2023-02-14T16:17:45.307Z,11.30
2023-02-14T16:20:51.172Z,11.20
2023-02-14T16:24:13.462Z,11.10
2023-02-14T16:27:16.429Z,11.10
2023-02-14T16:30:21.742Z,11.00
2023-02-14T16:33:27.948Z,11.00
2023-02-14T16:36:32.608Z,10.90
2023-02-14T16:39:36.316Z,10.90
2023-02-14T16:42:40.475Z,10.90
2023-02-14T16:45:45.493Z,10.70
2023-02-14T16:48:52.016Z,10.60
2023-02-14T16:51:55.748Z,10.60
2023-02-14T16:54:58.770Z,10.50
2023-02-14T16:58:02.582Z,10.50
2023-02-14T17:01:07.028Z,10.40
2023-02-14T17:04:10.082Z,10.40
2023-02-14T17:07:15.453Z,10.30
2023-02-14T17:10:20.618Z,10.30
2023-02-14T17:13:27.664Z,10.20
2023-02-14T17:16:33.364Z,10.20
2023-02-14T17:19:36.411Z,10.10
2023-02-14T17:22:39.460Z,10.00
2023-02-14T17:25:42.462Z,10.00
2023-02-14T17:28:46.391Z,9.90
2023-02-14T17:31:50.795Z,9.80
2023-02-14T17:34:54.025Z,9.80
2023-02-14T17:37:57.006Z,9.70
2023-02-14T17:41:00.270Z,9.70
2023-02-14T17:44:05.579Z,9.70
2023-02-14T17:47:09.911Z,9.60
2023-02-14T17:50:14.614Z,9.60
2023-02-14T17:53:18.776Z,9.40
2023-02-14T17:56:23.822Z,9.40
2023-02-14T17:59:26.784Z,9.40
2023-02-14T18:02:31.137Z,9.30
2023-02-14T18:05:37.149Z,9.20
2023-02-14T18:08:43.240Z,9.20
2023-02-14T18:11:46.705Z,9.10
2023-02-14T18:14:50.316Z,9.00
2023-02-14T18:17:54.597Z,8.90
2023-02-14T18:20:59.225Z,8.90
2023-02-14T18:24:02.417Z,8.90
2023-02-14T18:27:06.025Z,8.80
2023-02-14T18:30:10.822Z,8.80
2023-02-14T18:33:15.527Z,8.80
2023-02-14T18:36:20.909Z,8.70
2023-02-14T18:39:23.862Z,8.70
2023-02-14T18:42:26.840Z,8.70
2023-02-14T18:45:29.934Z,8.70
2023-02-14T18:48:34.676Z,8.60
2023-02-14T18:51:39.652Z,8.60
2023-02-14T18:54:42.704Z,8.60
2023-02-14T18:57:45.702Z,8.50
2023-02-14T19:00:48.721Z,8.50
2023-02-14T19:03:54.546Z,8.50
2023-02-14T19:06:57.551Z,8.50
2023-02-14T19:10:01.638Z,8.50
2023-02-14T19:13:04.587Z,8.40
2023-02-14T19:16:12.273Z,8.40
2023-02-14T19:19:16.757Z,8.30
2023-02-14T19:22:19.875Z,8.30
2023-02-14T19:25:22.807Z,8.20
2023-02-14T19:28:26.174Z,8.20
2023-02-14T19:31:29.682Z,8.10
2023-02-14T19:34:34.675Z,8.10
2023-02-14T19:37:37.689Z,8.10
2023-02-14T19:40:44.984Z,8.00
2023-02-14T19:43:49.101Z,7.90
2023-02-14T19:46:54.249Z,7.80
2023-02-14T19:49:58.616Z,7.80
2023-02-14T19:53:01.688Z,7.80
2023-02-14T19:56:04.795Z,7.70
2023-02-14T19:59:09.158Z,7.70
2023-02-14T20:02:15.685Z,7.60
2023-02-14T20:05:21.023Z,7.60
2023-02-14T20:08:23.984Z,7.50
2023-02-14T20:11:31.507Z,7.50
2023-02-14T20:14:50.280Z,7.50
2023-02-14T20:17:54.449Z,7.40
2023-02-14T20:21:04.892Z,7.30
2023-02-14T20:24:08.610Z,7.30
2023-02-14T20:27:11.876Z,7.20
2023-02-14T20:30:15.551Z,7.10
2023-02-14T20:33:18.620Z,7.10
2023-02-14T20:36:23.357Z,7.00
2023-02-14T20:39:29.908Z,7.00
2023-02-14T20:42:32.848Z,6.90
2023-02-14T20:45:35.891Z,6.90
2023-02-14T20:48:38.842Z,6.90
2023-02-14T20:51:43.296Z,6.90
2023-02-14T20:54:46.504Z,6.80
2023-02-14T20:57:49.486Z,6.80
2023-02-14T21:00:52.419Z,6.70
2023-02-14T21:03:55.508Z,6.60
2023-02-14T21:07:03.972Z,6.60
2023-02-14T21:10:08.223Z,6.60
2023-02-14T21:13:11.172Z,6.60
2023-02-14T21:16:16.645Z,6.50
2023-02-14T21:19:19.806Z,6.50
2023-02-14T21:22:24.429Z,6.50
2023-02-14T21:25:27.350Z,6.50
2023-02-14T21:28:30.500Z,6.50
2023-02-14T21:31:33.871Z,6.40
2023-02-14T21:34:36.917Z,6.40
2023-02-14T21:37:41.212Z,6.40
2023-02-14T21:40:44.158Z,6.40
2023-02-14T21:43:48.570Z,6.30
2023-02-14T21:46:51.511Z,6.20
2023-02-14T21:50:11.900Z,6.20
2023-02-14T21:53:16.203Z,6.20
2023-02-14T21:56:22.292Z,6.10
2023-02-14T21:59:25.425Z,6.10
2023-02-14T22:02:28.417Z,6.00
2023-02-14T22:05:31.396Z,6.00
2023-02-14T22:08:35.856Z,6.00
2023-02-14T22:11:38.854Z,5.90
2023-02-14T22:14:41.792Z,5.90
2023-02-14T22:17:45.010Z,5.90
2023-02-14T22:20:47.955Z,5.90
2023-02-14T22:23:52.368Z,5.90
2023-02-14T22:26:55.357Z,5.90
2023-02-14T22:29:58.421Z,5.80
2023-02-14T22:33:01.397Z,5.80
2023-02-14T22:36:04.769Z,5.80
2023-02-14T22:39:09.398Z,5.80
2023-02-14T22:42:12.389Z,5.80
2023-02-14T22:45:15.550Z,5.70
2023-02-14T22:48:18.733Z,5.70
2023-02-14T22:51:25.462Z,5.80
2023-02-14T22:54:30.375Z,5.70
2023-02-14T22:57:33.416Z,5.60
2023-02-14T23:00:36.387Z,5.60
2023-02-14T23:03:39.331Z,5.60
2023-02-14T23:06:42.299Z,5.70
2023-02-14T23:09:46.570Z,5.60
2023-02-14T23:13:07.121Z,5.50
2023-02-14T23:16:28.125Z,5.40
2023-02-14T23:19:50.062Z,5.30
2023-02-14T23:22:52.991Z,5.40
2023-02-14T23:25:57.306Z,5.30
2023-02-14T23:29:00.471Z,5.30
2023-02-14T23:32:03.768Z,5.40
2023-02-14T23:35:07.287Z,5.50
2023-02-14T23:38:10.260Z,5.50
2023-02-14T23:41:32.297Z,5.50
2023-02-14T23:44:36.248Z,5.50
2023-02-14T23:47:39.167Z,5.50
2023-02-14T23:50:42.301Z,5.30
2023-02-14T23:53:45.206Z,5.40
2023-02-14T23:56:49.550Z,5.50
2023-02-14T23:59:52.961Z,5.40
